sensor_id;sensor_type;location;lat;lon;timestamp;pressure;altitude;pressure_sealevel;temperature;humidity
21824;BME280;11074;48.596;9.238;2023-11-18T00:01:25;99086.03;;;7.18;100.00
21824;BME280;11074;48.596;9.238;2023-11-18T00:03:55;99087.69;;;7.12;100.00
21824;BME280;11074;48.596;9.238;2023-11-18T00:06:21;99092.78;;;7.20;100.00
21824;BME280;11074;48.596;9.238;2023-11-18T00:08:47;99087.84;;;7.24;100.00
21824;BME280;11074;48.596;9.238;2023-11-18T00:11:12;99092.38;;;7.23;100.00
21824;BME280;11074;48.596;9.238;2023-11-18T00:13:39;99089.13;;;7.15;100.00
21824;BME280;11074;48.596;9.238;2023-11-18T00:16:11;99087.25;;;7.28;100.00
21824;BME280;11074;48.596;9.238;2023-11-18T00:18:42;99095.41;;;7.33;100.00
21824;BME280;11074;48.596;9.238;2023-11-18T00:21:08;99091.72;;;7.41;100.00
21824;BME280;11074;48.596;9.238;2023-11-18T00:23:34;99084.56;;;7.42;99.90
21824;BME280;11074;48.596;9.238;2023-11-18T00:26:00;99083.72;;;7.41;100.00
21824;BME280;11074;48.596;9.238;2023-11-18T00:28:26;99088.41;;;7.46;99.59
21824;BME280;11074;48.596;9.238;2023-11-18T00:30:52;99083.34;;;7.24;99.55
21824;BME280;11074;48.596;9.238;2023-11-18T00:33:18;99079.47;;;7.27;100.00
21824;BME280;11074;48.596;9.238;2023-11-18T00:35:44;99086.25;;;7.23;100.00
21824;BME280;11074;48.596;9.238;2023-11-18T00:38:11;99083.56;;;7.16;100.00
21824;BME280;11074;48.596;9.238;2023-11-18T00:40:37;99080.72;;;7.11;100.00
21824;BME280;11074;48.596;9.238;2023-11-18T00:43:03;99089.94;;;6.96;100.00
21824;BME280;11074;48.596;9.238;2023-11-18T00:45:29;99086.91;;;6.86;100.00
21824;BME280;11074;48.596;9.238;2023-11-18T00:47:55;99084.22;;;6.92;100.00
21824;BME280;11074;48.596;9.238;2023-11-18T00:50:20;99081.38;;;6.94;100.00
21824;BME280;11074;48.596;9.238;2023-11-18T00:52:46;99081.56;;;6.92;100.00
21824;BME280;11074;48.596;9.238;2023-11-18T00:55:14;99076.88;;;6.94;100.00
21824;BME280;11074;48.596;9.238;2023-11-18T00:57:39;99088.09;;;7.03;100.00
21824;BME280;11074;48.596;9.238;2023-11-18T01:00:08;99087.06;;;7.04;100.00
21824;BME280;11074;48.596;9.238;2023-11-18T01:02:35;99087.50;;;7.07;100.00
21824;BME280;11074;48.596;9.238;2023-11-18T01:05:00;99087.50;;;7.07;100.00
21824;BME280;11074;48.596;9.238;2023-11-18T01:07:26;99088.09;;;7.03;100.00
21824;BME280;11074;48.596;9.238;2023-11-18T01:09:52;99082.16;;;7.01;100.00
21824;BME280;11074;48.596;9.238;2023-11-18T01:12:18;99082.59;;;7.04;100.00
21824;BME280;11074;48.596;9.238;2023-11-18T01:14:43;99083.41;;;7.05;100.00
21824;BME280;11074;48.596;9.238;2023-11-18T01:17:09;99082.19;;;7.07;100.00
21824;BME280;11074;48.596;9.238;2023-11-18T01:19:35;99096.25;;;7.14;99.61
21824;BME280;11074;48.596;9.238;2023-11-18T01:22:01;99095.63;;;7.19;99.59
21824;BME280;11074;48.596;9.238;2023-11-18T01:24:34;99091.78;;;7.15;99.07
21824;BME280;11074;48.596;9.238;2023-11-18T01:27:01;99095.25;;;7.15;98.77
21824;BME280;11074;48.596;9.238;2023-11-18T01:29:27;99095.63;;;7.19;99.51
21824;BME280;11074;48.596;9.238;2023-11-18T01:31:53;99098.72;;;7.16;99.10
21824;BME280;11074;48.596;9.238;2023-11-18T01:34:20;99100.16;;;7.18;99.55
21824;BME280;11074;48.596;9.238;2023-11-18T01:36:48;99107.69;;;7.21;99.49
21824;BME280;11074;48.596;9.238;2023-11-18T01:39:16;99116.50;;;7.22;99.16
21824;BME280;11074;48.596;9.238;2023-11-18T01:41:44;99118.34;;;7.28;99.54
21824;BME280;11074;48.596;9.238;2023-11-18T01:44:10;99117.50;;;7.27;99.20
21824;BME280;11074;48.596;9.238;2023-11-18T01:46:36;99120.19;;;7.21;99.18
21824;BME280;11074;48.596;9.238;2023-11-18T01:49:03;99122.63;;;7.16;99.79
21824;BME280;11074;48.596;9.238;2023-11-18T01:51:30;99116.53;;;7.15;99.78
21824;BME280;11074;48.596;9.238;2023-11-18T01:53:59;99105.66;;;7.17;99.90
21824;BME280;11074;48.596;9.238;2023-11-18T01:56:26;99111.59;;;7.19;100.00
21824;BME280;11074;48.596;9.238;2023-11-18T01:58:53;99111.00;;;7.17;100.00
21824;BME280;11074;48.596;9.238;2023-11-18T02:01:19;99105.88;;;7.15;100.00
21824;BME280;11074;48.596;9.238;2023-11-18T02:03:45;99101.59;;;7.14;100.00
21824;BME280;11074;48.596;9.238;2023-11-18T02:06:14;99098.09;;;7.20;100.00
21824;BME280;11074;48.596;9.238;2023-11-18T02:08:40;99103.00;;;7.23;99.88
21824;BME280;11074;48.596;9.238;2023-11-18T02:11:45;99097.50;;;7.18;100.00
21824;BME280;11074;48.596;9.238;2023-11-18T02:14:18;99102.38;;;7.21;99.86
21824;BME280;11074;48.596;9.238;2023-11-18T02:16:49;99097.91;;;7.15;100.00
21824;BME280;11074;48.596;9.238;2023-11-18T02:19:24;99097.09;;;7.15;100.00
21824;BME280;11074;48.596;9.238;2023-11-18T02:21:52;99102.41;;;7.15;100.00
21824;BME280;11074;48.596;9.238;2023-11-18T02:24:31;99102.78;;;7.25;100.00
21824;BME280;11074;48.596;9.238;2023-11-18T02:27:03;99106.69;;;7.22;100.00
21824;BME280;11074;48.596;9.238;2023-11-18T02:29:36;99105.47;;;7.18;100.00
21824;BME280;11074;48.596;9.238;2023-11-18T02:32:37;99095.22;;;7.22;99.98
21824;BME280;11074;48.596;9.238;2023-11-18T02:35:13;99100.16;;;7.18;100.00
21824;BME280;11074;48.596;9.238;2023-11-18T02:37:44;99101.38;;;7.16;100.00
21824;BME280;11074;48.596;9.238;2023-11-18T02:40:20;99101.38;;;7.16;100.00
21824;BME280;11074;48.596;9.238;2023-11-18T02:42:52;99098.13;;;7.07;100.00
21824;BME280;11074;48.596;9.238;2023-11-18T02:45:20;99098.13;;;7.07;100.00
21824;BME280;11074;48.596;9.238;2023-11-18T02:47:46;99097.91;;;7.09;100.00
21824;BME280;11074;48.596;9.238;2023-11-18T02:50:13;99105.47;;;7.05;100.00
21824;BME280;11074;48.596;9.238;2023-11-18T02:52:41;99093.00;;;7.06;100.00
21824;BME280;11074;48.596;9.238;2023-11-18T02:55:08;99101.59;;;7.08;100.00
21824;BME280;11074;48.596;9.238;2023-11-18T02:57:38;99093.63;;;7.08;100.00
21824;BME280;11074;48.596;9.238;2023-11-18T03:00:08;99096.03;;;7.16;100.00
21824;BME280;11074;48.596;9.238;2023-11-18T03:02:42;99081.53;;;7.12;100.00
21824;BME280;11074;48.596;9.238;2023-11-18T03:05:08;99097.09;;;7.15;100.00
21824;BME280;11074;48.596;9.238;2023-11-18T03:07:38;99087.50;;;7.07;100.00
21824;BME280;11074;48.596;9.238;2023-11-18T03:10:04;99085.88;;;7.00;100.00
21824;BME280;11074;48.596;9.238;2023-11-18T03:12:36;99088.75;;;6.92;100.00
21824;BME280;11074;48.596;9.238;2023-11-18T03:15:06;99094.06;;;6.92;100.00
21824;BME280;11074;48.596;9.238;2023-11-18T03:17:37;99090.78;;;6.77;100.00
21824;BME280;11074;48.596;9.238;2023-11-18T03:20:04;99088.72;;;6.85;100.00
21824;BME280;11074;48.596;9.238;2023-11-18T03:22:37;99093.63;;;6.82;100.00
21824;BME280;11074;48.596;9.238;2023-11-18T03:25:03;99090.19;;;6.81;100.00
21824;BME280;11074;48.596;9.238;2023-11-18T03:27:31;99091.59;;;6.64;100.00
21824;BME280;11074;48.596;9.238;2023-11-18T03:29:56;99094.06;;;6.72;100.00
21824;BME280;11074;48.596;9.238;2023-11-18T03:32:22;99091.19;;;6.73;100.00
21824;BME280;11074;48.596;9.238;2023-11-18T03:34:47;99089.56;;;6.72;100.00
21824;BME280;11074;48.596;9.238;2023-11-18T03:37:13;99087.94;;;6.65;100.00
21824;BME280;11074;48.596;9.238;2023-11-18T03:39:39;99080.34;;;6.55;99.93
21824;BME280;11074;48.596;9.238;2023-11-18T03:42:04;99085.06;;;6.60;100.00
21824;BME280;11074;48.596;9.238;2023-11-18T03:44:30;99093.66;;;6.62;100.00
21824;BME280;11074;48.596;9.238;2023-11-18T03:46:56;99095.28;;;6.69;100.00
21824;BME280;11074;48.596;9.238;2023-11-18T03:49:21;99100.59;;;6.69;99.44
21824;BME280;11074;48.596;9.238;2023-11-18T03:51:47;99103.03;;;6.58;98.90
21824;BME280;11074;48.596;9.238;2023-11-18T03:54:13;99102.81;;;6.53;99.22
21824;BME280;11074;48.596;9.238;2023-11-18T03:56:39;99108.72;;;6.42;99.24
21824;BME280;11074;48.596;9.238;2023-11-18T03:59:05;99114.84;;;6.42;100.00
21824;BME280;11074;48.596;9.238;2023-11-18T04:01:31;99118.13;;;6.38;98.93
21824;BME280;11074;48.596;9.238;2023-11-18T04:03:58;99112.63;;;6.46;98.83
21824;BME280;11074;48.596;9.238;2023-11-18T04:06:24;99123.84;;;6.48;100.00
21824;BME280;11074;48.596;9.238;2023-11-18T04:08:50;99115.47;;;6.44;100.00
21824;BME280;11074;48.596;9.238;2023-11-18T04:11:16;99121.84;;;6.56;99.17
21824;BME280;11074;48.596;9.238;2023-11-18T04:13:43;99113.84;;;6.43;99.86
21824;BME280;11074;48.596;9.238;2023-11-18T04:16:16;99112.00;;;6.50;99.06
21824;BME280;11074;48.596;9.238;2023-11-18T04:18:45;99114.22;;;6.34;98.08
21824;BME280;11074;48.596;9.238;2023-11-18T04:21:12;99118.94;;;6.38;99.06
21824;BME280;11074;48.596;9.238;2023-11-18T04:23:42;99107.50;;;6.38;99.46
21824;BME280;11074;48.596;9.238;2023-11-18T04:26:09;99107.53;;;6.51;99.26
21824;BME280;11074;48.596;9.238;2023-11-18T04:28:36;99107.13;;;6.60;99.20
21824;BME280;11074;48.596;9.238;2023-11-18T04:31:02;99112.66;;;6.59;98.65
21824;BME280;11074;48.596;9.238;2023-11-18T04:33:29;99114.88;;;6.55;99.19
21824;BME280;11074;48.596;9.238;2023-11-18T04:35:59;99112.22;;;6.55;98.21
21824;BME280;11074;48.596;9.238;2023-11-18T04:38:25;99111.19;;;6.50;98.15
21824;BME280;11074;48.596;9.238;2023-11-18T04:40:52;99112.44;;;6.54;99.51
21824;BME280;11074;48.596;9.238;2023-11-18T04:43:20;99110.16;;;6.44;99.12
21824;BME280;11074;48.596;9.238;2023-11-18T04:45:47;99113.44;;;6.53;99.46
21824;BME280;11074;48.596;9.238;2023-11-18T04:48:13;99098.34;;;6.53;99.67
21824;BME280;11074;48.596;9.238;2023-11-18T04:50:42;99110.41;;;6.62;98.81
21824;BME280;11074;48.596;9.238;2023-11-18T04:53:08;99109.75;;;6.28;99.68
21824;BME280;11074;48.596;9.238;2023-11-18T04:55:36;99108.91;;;6.34;99.80
21824;BME280;11074;48.596;9.238;2023-11-18T04:58:01;99095.25;;;6.37;99.40
21824;BME280;11074;48.596;9.238;2023-11-18T05:00:28;99102.38;;;6.30;99.35
21824;BME280;11074;48.596;9.238;2023-11-18T05:02:54;99101.38;;;6.37;99.64
21824;BME280;11074;48.596;9.238;2023-11-18T05:05:20;99111.59;;;6.47;99.54
21824;BME280;11074;48.596;9.238;2023-11-18T05:07:46;99106.72;;;6.44;98.23
21824;BME280;11074;48.596;9.238;2023-11-18T05:10:13;99111.56;;;6.34;98.10
21824;BME280;11074;48.596;9.238;2023-11-18T05:12:39;99103.19;;;6.17;98.49
21824;BME280;11074;48.596;9.238;2023-11-18T05:15:07;99107.28;;;6.26;99.49
21824;BME280;11074;48.596;9.238;2023-11-18T05:17:38;99100.75;;;6.35;99.59
21824;BME280;11074;48.596;9.238;2023-11-18T05:20:05;99101.78;;;6.41;99.58
21824;BME280;11074;48.596;9.238;2023-11-18T05:22:35;99094.84;;;6.40;100.00
21824;BME280;11074;48.596;9.238;2023-11-18T05:25:03;99104.06;;;6.44;99.85
21824;BME280;11074;48.596;9.238;2023-11-18T05:27:30;99100.75;;;6.35;98.59
21824;BME280;11074;48.596;9.238;2023-11-18T05:29:59;99098.28;;;6.34;99.76
21824;BME280;11074;48.596;9.238;2023-11-18T05:32:32;99103.41;;;6.35;99.03
21824;BME280;11074;48.596;9.238;2023-11-18T05:34:58;99096.06;;;6.37;98.96
21824;BME280;11074;48.596;9.238;2023-11-18T05:37:33;99089.09;;;6.30;98.49
21824;BME280;11074;48.596;9.238;2023-11-18T05:40:04;99097.28;;;6.35;99.66
21824;BME280;11074;48.596;9.238;2023-11-18T05:42:34;99099.72;;;6.30;99.12
21824;BME280;11074;48.596;9.238;2023-11-18T05:45:03;99097.44;;;6.20;100.00
21824;BME280;11074;48.596;9.238;2023-11-18T05:47:35;99094.41;;;6.17;100.00
21824;BME280;11074;48.596;9.238;2023-11-18T05:50:02;99101.75;;;6.15;100.00
21824;BME280;11074;48.596;9.238;2023-11-18T05:52:46;99097.25;;;6.22;100.00
21824;BME280;11074;48.596;9.238;2023-11-18T05:55:11;99095.44;;;6.22;100.00
21824;BME280;11074;48.596;9.238;2023-11-18T05:57:37;99092.97;;;6.21;100.00
21824;BME280;11074;48.596;9.238;2023-11-18T06:00:03;99098.41;;;5.99;100.00
21824;BME280;11074;48.596;9.238;2023-11-18T06:02:31;99090.69;;;6.04;100.00
21824;BME280;11074;48.596;9.238;2023-11-18T06:04:56;99088.22;;;6.09;100.00
21824;BME280;11074;48.596;9.238;2023-11-18T06:07:22;99084.00;;;6.22;100.00
21824;BME280;11074;48.596;9.238;2023-11-18T06:09:53;99086.63;;;6.28;100.00
21824;BME280;11074;48.596;9.238;2023-11-18T06:12:18;99084.19;;;6.27;99.61
21824;BME280;11074;48.596;9.238;2023-11-18T06:14:44;99079.09;;;6.32;100.00
21824;BME280;11074;48.596;9.238;2023-11-18T06:17:12;99080.97;;;6.38;100.00
21824;BME280;11074;48.596;9.238;2023-11-18T06:19:38;99091.97;;;6.35;100.00
21824;BME280;11074;48.596;9.238;2023-11-18T06:22:07;99079.28;;;6.24;99.88
21824;BME280;11074;48.596;9.238;2023-11-18T06:24:33;99091.75;;;6.36;100.00
21824;BME280;11074;48.596;9.238;2023-11-18T06:26:59;99086.06;;;6.39;99.64
21824;BME280;11074;48.596;9.238;2023-11-18T06:29:25;99087.47;;;6.42;100.00
21824;BME280;11074;48.596;9.238;2023-11-18T06:31:50;99099.75;;;6.49;100.00
21824;BME280;11074;48.596;9.238;2023-11-18T06:34:16;99081.16;;;6.56;99.57
21824;BME280;11074;48.596;9.238;2023-11-18T06:36:42;99097.13;;;6.62;99.35
21824;BME280;11074;48.596;9.238;2023-11-18T06:39:08;99097.94;;;6.56;99.45
21824;BME280;11074;48.596;9.238;2023-11-18T06:41:34;99092.41;;;6.58;98.46
21824;BME280;11074;48.596;9.238;2023-11-18T06:44:03;99103.03;;;6.51;99.03
21824;BME280;11074;48.596;9.238;2023-11-18T06:46:41;99101.22;;;6.52;99.35
21824;BME280;11074;48.596;9.238;2023-11-18T06:49:06;99105.28;;;6.54;98.96
21824;BME280;11074;48.596;9.238;2023-11-18T06:51:35;99107.94;;;6.48;99.48
21824;BME280;11074;48.596;9.238;2023-11-18T06:54:01;99105.88;;;6.50;99.09
21824;BME280;11074;48.596;9.238;2023-11-18T06:56:40;99102.00;;;6.52;99.13
21824;BME280;11074;48.596;9.238;2023-11-18T06:59:13;99094.03;;;6.52;98.26
21824;BME280;11074;48.596;9.238;2023-11-18T07:01:40;99091.38;;;6.46;98.93
21824;BME280;11074;48.596;9.238;2023-11-18T07:04:08;99090.97;;;6.49;98.48
21824;BME280;11074;48.596;9.238;2023-11-18T07:06:37;99087.50;;;6.48;98.64
21824;BME280;11074;48.596;9.238;2023-11-18T07:09:10;99093.41;;;6.37;99.38
21824;BME280;11074;48.596;9.238;2023-11-18T07:11:43;99088.69;;;6.39;98.84
21824;BME280;11074;48.596;9.238;2023-11-18T07:14:11;99079.91;;;6.32;98.80
21824;BME280;11074;48.596;9.238;2023-11-18T07:16:38;99082.78;;;6.37;99.52
21824;BME280;11074;48.596;9.238;2023-11-18T07:19:05;99079.72;;;6.40;98.80
21824;BME280;11074;48.596;9.238;2023-11-18T07:21:31;99083.41;;;6.46;98.64
21824;BME280;11074;48.596;9.238;2023-11-18T07:23:56;99100.38;;;6.51;99.52
21824;BME280;11074;48.596;9.238;2023-11-18T07:26:22;99111.00;;;6.58;98.57
21824;BME280;11074;48.596;9.238;2023-11-18T07:28:49;99114.28;;;6.60;98.64
21824;BME280;11074;48.596;9.238;2023-11-18T07:31:15;99121.44;;;6.66;98.74
21824;BME280;11074;48.596;9.238;2023-11-18T07:33:45;99134.13;;;6.70;98.56
21824;BME280;11074;48.596;9.238;2023-11-18T07:36:15;99124.09;;;6.66;98.60
21824;BME280;11074;48.596;9.238;2023-11-18T07:38:41;99126.75;;;6.66;98.12
21824;BME280;11074;48.596;9.238;2023-11-18T07:41:07;99118.16;;;6.64;97.81
21824;BME280;11074;48.596;9.238;2023-11-18T07:43:35;99119.38;;;6.68;98.54
21824;BME280;11074;48.596;9.238;2023-11-18T07:46:05;99120.63;;;6.72;98.89
21824;BME280;11074;48.596;9.238;2023-11-18T07:48:33;99109.59;;;6.75;98.40
21824;BME280;11074;48.596;9.238;2023-11-18T07:50:58;99113.25;;;6.74;98.59
21824;BME280;11074;48.596;9.238;2023-11-18T07:53:25;99105.50;;;6.79;98.71
21824;BME280;11074;48.596;9.238;2023-11-18T07:55:55;99099.34;;;6.79;99.00
21824;BME280;11074;48.596;9.238;2023-11-18T07:58:20;99102.63;;;6.74;99.21
21824;BME280;11074;48.596;9.238;2023-11-18T08:00:48;99091.38;;;6.79;98.62
21824;BME280;11074;48.596;9.238;2023-11-18T08:03:15;99093.03;;;6.86;98.64
21824;BME280;11074;48.596;9.238;2023-11-18T08:05:44;99092.63;;;6.89;97.71
21824;BME280;11074;48.596;9.238;2023-11-18T08:08:11;99091.78;;;6.82;98.13
21824;BME280;11074;48.596;9.238;2023-11-18T08:10:40;99105.09;;;6.82;97.88
21824;BME280;11074;48.596;9.238;2023-11-18T08:13:07;99102.63;;;6.87;97.71
21824;BME280;11074;48.596;9.238;2023-11-18T08:15:34;99104.47;;;6.93;98.34
21824;BME280;11074;48.596;9.238;2023-11-18T08:18:01;99104.66;;;6.98;98.57
21824;BME280;11074;48.596;9.238;2023-11-18T08:20:28;99101.38;;;7.03;97.86
21824;BME280;11074;48.596;9.238;2023-11-18T08:22:53;99107.31;;;7.11;97.78
21824;BME280;11074;48.596;9.238;2023-11-18T08:25:20;99104.25;;;7.14;98.12
21824;BME280;11074;48.596;9.238;2023-11-18T08:27:48;99112.63;;;7.18;98.05
21824;BME280;11074;48.596;9.238;2023-11-18T08:30:14;99119.00;;;7.10;97.91
21824;BME280;11074;48.596;9.238;2023-11-18T08:32:44;99114.88;;;7.14;98.41
21824;BME280;11074;48.596;9.238;2023-11-18T08:35:14;99108.53;;;7.22;97.79
21824;BME280;11074;48.596;9.238;2023-11-18T08:37:44;99095.63;;;7.25;97.34
21824;BME280;11074;48.596;9.238;2023-11-18T08:40:11;99105.66;;;7.30;98.23
21824;BME280;11074;48.596;9.238;2023-11-18T08:42:53;99112.19;;;7.34;97.23
21824;BME280;11074;48.596;9.238;2023-11-18T08:45:27;99110.75;;;7.38;97.98
21824;BME280;11074;48.596;9.238;2023-11-18T08:47:56;99105.00;;;7.34;98.19
21824;BME280;11074;48.596;9.238;2023-11-18T08:50:23;99104.19;;;7.41;98.36
21824;BME280;11074;48.596;9.238;2023-11-18T08:52:53;99101.16;;;7.37;98.23
21824;BME280;11074;48.596;9.238;2023-11-18T08:55:27;99098.69;;;7.42;97.76
21824;BME280;11074;48.596;9.238;2023-11-18T08:58:11;99102.34;;;7.41;97.97
21824;BME280;11074;48.596;9.238;2023-11-18T09:00:56;99104.78;;;7.43;97.55
21824;BME280;11074;48.596;9.238;2023-11-18T09:03:29;99092.91;;;7.52;97.08
21824;BME280;11074;48.596;9.238;2023-11-18T09:06:06;99091.84;;;7.59;97.45
21824;BME280;11074;48.596;9.238;2023-11-18T09:08:46;99086.34;;;7.61;97.00
21824;BME280;11074;48.596;9.238;2023-11-18T09:11:18;99087.94;;;7.62;97.31
21824;BME280;11074;48.596;9.238;2023-11-18T09:13:47;99083.44;;;7.69;97.59
21824;BME280;11074;48.596;9.238;2023-11-18T09:16:15;99082.56;;;7.75;96.69
21824;BME280;11074;48.596;9.238;2023-11-18T09:18:43;99083.63;;;7.74;97.12
21824;BME280;11074;48.596;9.238;2023-11-18T09:21:11;99085.66;;;7.78;96.99
21824;BME280;11074;48.596;9.238;2023-11-18T09:23:42;99089.72;;;7.81;96.85
21824;BME280;11074;48.596;9.238;2023-11-18T09:26:08;99086.84;;;7.82;97.10
21824;BME280;11074;48.596;9.238;2023-11-18T09:28:37;99086.66;;;7.84;96.42
21824;BME280;11074;48.596;9.238;2023-11-18T09:31:07;99085.41;;;7.86;96.51
21824;BME280;11074;48.596;9.238;2023-11-18T09:33:38;99090.69;;;7.93;96.36
21824;BME280;11074;48.596;9.238;2023-11-18T09:36:08;99101.34;;;7.93;96.46
21824;BME280;11074;48.596;9.238;2023-11-18T09:38:39;99094.75;;;8.02;95.70
21824;BME280;11074;48.596;9.238;2023-11-18T09:41:11;99097.00;;;8.05;95.57
21824;BME280;11074;48.596;9.238;2023-11-18T09:43:38;99090.84;;;8.05;96.18
21824;BME280;11074;48.596;9.238;2023-11-18T09:46:25;99092.06;;;8.09;95.08
21824;BME280;11074;48.596;9.238;2023-11-18T09:49:22;99090.56;;;8.19;95.50
21824;BME280;11074;48.596;9.238;2023-11-18T09:51:57;99090.94;;;8.23;95.14
21824;BME280;11074;48.596;9.238;2023-11-18T09:55:04;99088.47;;;8.28;94.80
21824;BME280;11074;48.596;9.238;2023-11-18T09:57:44;99087.03;;;8.32;94.34
21824;BME280;11074;48.596;9.238;2023-11-18T10:00:16;99085.38;;;8.37;94.09
21824;BME280;11074;48.596;9.238;2023-11-18T10:02:52;99077.72;;;8.41;93.97
21824;BME280;11074;48.596;9.238;2023-11-18T10:05:23;99082.00;;;8.48;93.40
21824;BME280;11074;48.596;9.238;2023-11-18T10:07:53;99074.59;;;8.50;93.18
21824;BME280;11074;48.596;9.238;2023-11-18T10:10:19;99075.59;;;8.56;92.72
21824;BME280;11074;48.596;9.238;2023-11-18T10:12:52;99069.41;;;8.62;92.20
21824;BME280;11074;48.596;9.238;2023-11-18T10:15:21;99077.34;;;8.69;93.14
21824;BME280;11074;48.596;9.238;2023-11-18T10:17:53;99073.38;;;8.78;91.50
21824;BME280;11074;48.596;9.238;2023-11-18T10:20:46;99073.56;;;8.76;90.30
21824;BME280;11074;48.596;9.238;2023-11-18T10:23:14;99068.47;;;8.75;90.78
21824;BME280;11074;48.596;9.238;2023-11-18T10:25:55;99059.06;;;8.72;89.35
21824;BME280;11074;48.596;9.238;2023-11-18T10:28:35;99065.59;;;8.76;89.29
21824;BME280;11074;48.596;9.238;2023-11-18T10:31:07;99063.06;;;8.81;89.64
21824;BME280;11074;48.596;9.238;2023-11-18T10:33:36;99060.75;;;8.91;89.20
21824;BME280;11074;48.596;9.238;2023-11-18T10:36:04;99058.28;;;8.90;88.63
21824;BME280;11074;48.596;9.238;2023-11-18T10:38:39;99068.94;;;8.90;88.24
21824;BME280;11074;48.596;9.238;2023-11-18T10:41:15;99060.09;;;8.96;88.29
21824;BME280;11074;48.596;9.238;2023-11-18T10:43:42;99062.75;;;8.96;88.99
21824;BME280;11074;48.596;9.238;2023-11-18T10:46:12;99068.47;;;8.99;89.29
21824;BME280;11074;48.596;9.238;2023-11-18T10:48:49;99060.91;;;8.96;88.43
21824;BME280;11074;48.596;9.238;2023-11-18T10:51:20;99064.00;;;8.93;87.67
21824;BME280;11074;48.596;9.238;2023-11-18T10:53:52;99063.19;;;8.93;87.61
21824;BME280;11074;48.596;9.238;2023-11-18T10:56:24;99057.91;;;8.86;87.30
21824;BME280;11074;48.596;9.238;2023-11-18T10:59:04;99049.19;;;8.97;87.00
21824;BME280;11074;48.596;9.238;2023-11-18T11:01:37;99060.25;;;9.01;88.69
21824;BME280;11074;48.596;9.238;2023-11-18T11:04:11;99060.38;;;9.06;87.60
21824;BME280;11074;48.596;9.238;2023-11-18T11:06:43;99047.00;;;9.12;87.36
21824;BME280;11074;48.596;9.238;2023-11-18T11:09:09;99042.47;;;9.13;86.61
21824;BME280;11074;48.596;9.238;2023-11-18T11:11:54;99024.25;;;9.10;86.34
21824;BME280;11074;48.596;9.238;2023-11-18T11:14:23;99039.00;;;9.12;87.15
21824;BME280;11074;48.596;9.238;2023-11-18T11:16:55;99030.38;;;9.10;86.90
21824;BME280;11074;48.596;9.238;2023-11-18T11:20:22;99017.44;;;9.14;87.20
21824;BME280;11074;48.596;9.238;2023-11-18T11:22:34;99030.47;;;9.22;87.36
21824;BME280;11074;48.596;9.238;2023-11-18T11:25:31;99034.16;;;9.21;86.70
21824;BME280;11074;48.596;9.238;2023-11-18T11:28:15;99031.06;;;9.24;86.10
21824;BME280;11074;48.596;9.238;2023-11-18T11:34:02;99042.03;;;9.34;87.80
21824;BME280;11074;48.596;9.238;2023-11-18T11:36:41;99033.13;;;9.40;86.76
21824;BME280;11074;48.596;9.238;2023-11-18T11:39:08;99024.84;;;9.48;88.38
21824;BME280;11074;48.596;9.238;2023-11-18T11:41:44;99026.53;;;9.43;87.49
21824;BME280;11074;48.596;9.238;2023-11-18T11:44:13;99014.25;;;9.42;87.10
21824;BME280;11074;48.596;9.238;2023-11-18T11:46:40;99013.44;;;9.41;86.27
21824;BME280;11074;48.596;9.238;2023-11-18T11:49:13;99015.97;;;9.36;86.37
21824;BME280;11074;48.596;9.238;2023-11-18T11:51:48;99005.28;;;9.36;87.16
21824;BME280;11074;48.596;9.238;2023-11-18T11:54:25;99004.38;;;9.42;87.35
21824;BME280;11074;48.596;9.238;2023-11-18T11:56:57;99010.91;;;9.46;85.81
21824;BME280;11074;48.596;9.238;2023-11-18T12:02:26;98983.53;;;9.51;86.57
21824;BME280;11074;48.596;9.238;2023-11-18T12:04:58;98984.13;;;9.53;87.11
21824;BME280;11074;48.596;9.238;2023-11-18T12:07:27;98981.25;;;9.54;87.81
21824;BME280;11074;48.596;9.238;2023-11-18T12:10:00;98973.81;;;9.56;88.16
21824;BME280;11074;48.596;9.238;2023-11-18T12:12:27;98973.22;;;9.54;88.64
21824;BME280;11074;48.596;9.238;2023-11-18T12:17:20;98971.72;;;9.58;88.78
21824;BME280;11074;48.596;9.238;2023-11-18T12:19:50;98976.59;;;9.50;88.60
21824;BME280;11074;48.596;9.238;2023-11-18T12:22:21;98970.78;;;9.53;87.57
21824;BME280;11074;48.596;9.238;2023-11-18T12:33:00;98927.94;;;9.48;87.51
21824;BME280;11074;48.596;9.238;2023-11-18T12:36:21;98923.34;;;9.55;87.91
21824;BME280;11074;48.596;9.238;2023-11-18T12:39:58;98924.94;;;9.44;87.18
21824;BME280;11074;48.596;9.238;2023-11-18T12:42:59;98914.38;;;9.49;88.03
21824;BME280;11074;48.596;9.238;2023-11-18T12:46:07;98911.91;;;9.48;88.27
21824;BME280;11074;48.596;9.238;2023-11-18T12:48:44;98905.78;;;9.47;87.74
21824;BME280;11074;48.596;9.238;2023-11-18T12:51:12;98901.94;;;9.43;86.98
21824;BME280;11074;48.596;9.238;2023-11-18T12:53:51;98895.44;;;9.39;86.33
21824;BME280;11074;48.596;9.238;2023-11-18T12:56:19;98892.16;;;9.37;86.93
21824;BME280;11074;48.596;9.238;2023-11-18T12:58:49;98901.81;;;9.38;86.66
21824;BME280;11074;48.596;9.238;2023-11-18T13:01:15;98896.47;;;9.38;87.37
21824;BME280;11074;48.596;9.238;2023-11-18T13:03:42;98895.75;;;9.31;87.28
21824;BME280;11074;48.596;9.238;2023-11-18T13:06:11;98883.44;;;9.30;87.41
21824;BME280;11074;48.596;9.238;2023-11-18T13:08:38;98875.06;;;9.27;88.07
21824;BME280;11074;48.596;9.238;2023-11-18T13:11:05;98879.13;;;9.29;88.43
21824;BME280;11074;48.596;9.238;2023-11-18T13:13:34;98885.09;;;9.31;88.42
21824;BME280;11074;48.596;9.238;2023-11-18T13:16:04;98885.53;;;9.28;88.62
21824;BME280;11074;48.596;9.238;2023-11-18T13:18:45;98878.78;;;9.26;88.81
21824;BME280;11074;48.596;9.238;2023-11-18T13:21:19;98888.41;;;9.27;88.63
21824;BME280;11074;48.596;9.238;2023-11-18T13:23:47;98900.47;;;9.29;88.81
21824;BME280;11074;48.596;9.238;2023-11-18T13:26:14;98892.47;;;9.29;89.34
21824;BME280;11074;48.596;9.238;2023-11-18T13:28:40;98887.97;;;9.30;89.60
21824;BME280;11074;48.596;9.238;2023-11-18T13:31:07;98885.66;;;9.33;89.73
21824;BME280;11074;48.596;9.238;2023-11-18T13:33:42;98877.22;;;9.36;89.53
21824;BME280;11074;48.596;9.238;2023-11-18T13:36:09;98877.06;;;9.31;89.10
21824;BME280;11074;48.596;9.238;2023-11-18T13:38:39;98876.03;;;9.32;89.88
21824;BME280;11074;48.596;9.238;2023-11-18T13:41:07;98878.47;;;9.34;89.72